createdAt,value
2022-09-22T00:01:26.468Z,13.10
2022-09-22T00:03:56.384Z,13.00
2022-09-22T00:06:26.334Z,13.00
2022-09-22T00:08:55.807Z,12.90
2022-09-22T00:11:28.931Z,12.90
2022-09-22T00:14:00.049Z,12.90
2022-09-22T00:16:31.269Z,12.90
2022-09-22T00:18:59.416Z,12.90
2022-09-22T00:21:27.766Z,12.90
2022-09-22T00:23:56.346Z,12.80
2022-09-22T00:26:25.407Z,12.80
2022-09-22T00:28:53.465Z,12.80
2022-09-22T00:31:24.199Z,12.80
2022-09-22T00:33:53.444Z,12.80
2022-09-22T00:36:22.595Z,12.80
2022-09-22T00:38:51.552Z,12.80
2022-09-22T00:41:23.151Z,12.70
2022-09-22T00:43:52.706Z,12.70
2022-09-22T00:46:26.629Z,12.60
2022-09-22T00:48:58.719Z,12.60
2022-09-22T00:51:30.958Z,12.50
2022-09-22T00:54:00.230Z,12.50
2022-09-22T00:56:31.526Z,12.50
2022-09-22T00:59:02.324Z,12.50
2022-09-22T01:01:32.688Z,12.50
2022-09-22T01:04:00.852Z,12.50
2022-09-22T01:06:29.611Z,12.50
2022-09-22T01:08:58.302Z,12.40
2022-09-22T01:11:29.397Z,12.40
2022-09-22T01:14:06.967Z,12.40
2022-09-22T01:16:46.555Z,12.40
2022-09-22T01:19:55.932Z,12.30
2022-09-22T01:22:40.577Z,12.30
2022-09-22T01:25:37.659Z,12.20
2022-09-22T01:28:40.930Z,12.20
2022-09-22T01:31:18.583Z,12.20
2022-09-22T01:33:53.469Z,12.20
2022-09-22T01:36:26.288Z,12.20
2022-09-22T01:39:02.470Z,12.20
2022-09-22T01:41:47.986Z,12.10
2022-09-22T01:44:21.577Z,12.10
2022-09-22T01:46:55.173Z,12.10
2022-09-22T01:49:25.268Z,12.10
2022-09-22T01:51:57.747Z,12.00
2022-09-22T01:54:31.586Z,12.00
2022-09-22T01:57:06.263Z,12.00
2022-09-22T01:59:38.011Z,12.00
2022-09-22T02:02:13.556Z,12.00
2022-09-22T02:04:47.784Z,11.90
2022-09-22T02:07:22.384Z,11.90
2022-09-22T02:09:51.252Z,11.90
2022-09-22T02:12:19.774Z,11.90
2022-09-22T02:14:48.153Z,11.90
2022-09-22T02:17:17.993Z,11.90
2022-09-22T02:19:45.874Z,11.90
2022-09-22T02:22:13.998Z,11.90
2022-09-22T02:24:44.168Z,11.80
2022-09-22T02:27:16.405Z,11.80
2022-09-22T02:29:49.356Z,11.80
2022-09-22T02:32:20.447Z,11.80
2022-09-22T02:34:48.965Z,11.80
2022-09-22T02:37:24.919Z,11.80
2022-09-22T02:40:04.987Z,11.80
2022-09-22T02:42:37.794Z,11.80
2022-09-22T02:45:10.681Z,11.80
2022-09-22T02:47:44.257Z,11.70
2022-09-22T02:50:14.753Z,11.70
2022-09-22T02:52:42.670Z,11.70
2022-09-22T02:55:12.058Z,11.70
2022-09-22T02:57:40.096Z,11.70
2022-09-22T03:00:08.980Z,11.70
2022-09-22T03:02:36.939Z,11.70
2022-09-22T03:05:07.062Z,11.60
2022-09-22T03:07:34.916Z,11.60
2022-09-22T03:10:02.804Z,11.60
2022-09-22T03:12:31.008Z,11.60
2022-09-22T03:14:58.807Z,11.60
2022-09-22T03:17:26.680Z,11.60
2022-09-22T03:19:54.506Z,11.60
2022-09-22T03:22:23.648Z,11.60
2022-09-22T03:24:51.464Z,11.50
2022-09-22T03:27:19.317Z,11.50
2022-09-22T03:29:47.167Z,11.50
2022-09-22T03:32:14.984Z,11.40
2022-09-22T03:34:42.835Z,11.40
2022-09-22T03:37:10.628Z,11.40
2022-09-22T03:39:39.966Z,11.40
2022-09-22T03:42:08.460Z,11.30
2022-09-22T03:44:36.329Z,11.30
2022-09-22T03:47:04.255Z,11.30
2022-09-22T03:49:32.252Z,11.20
2022-09-22T03:52:00.168Z,11.20
2022-09-22T03:54:28.052Z,11.20
2022-09-22T03:56:57.222Z,11.20
2022-09-22T03:59:25.071Z,11.20
2022-09-22T04:01:57.513Z,11.20
2022-09-22T04:04:26.161Z,11.20
2022-09-22T04:06:53.993Z,11.10
2022-09-22T04:09:21.987Z,11.00
2022-09-22T04:11:49.846Z,11.10
2022-09-22T04:14:19.385Z,11.00
2022-09-22T04:16:47.352Z,11.00
2022-09-22T04:19:15.506Z,11.00
2022-09-22T04:21:43.420Z,11.00
2022-09-22T04:24:11.481Z,10.90
2022-09-22T04:26:51.599Z,10.90
2022-09-22T04:29:25.784Z,10.90
2022-09-22T04:31:53.596Z,10.80
2022-09-22T04:34:21.501Z,10.80
2022-09-22T04:36:49.664Z,10.80
2022-09-22T04:39:20.368Z,10.80
2022-09-22T04:41:51.704Z,10.80
2022-09-22T04:44:19.499Z,10.80
2022-09-22T04:46:49.554Z,10.70
2022-09-22T04:49:17.516Z,10.70
2022-09-22T04:51:45.513Z,10.70
2022-09-22T04:54:14.827Z,10.70
2022-09-22T04:56:42.753Z,10.70
2022-09-22T04:59:10.770Z,10.60
2022-09-22T05:01:38.818Z,10.60
2022-09-22T05:04:08.491Z,10.60
2022-09-22T05:06:36.940Z,10.50
2022-09-22T05:09:05.208Z,10.50
2022-09-22T05:11:33.207Z,10.50
2022-09-22T05:14:02.137Z,10.50
2022-09-22T05:16:32.167Z,10.40
2022-09-22T05:19:00.107Z,10.40
2022-09-22T05:21:30.012Z,10.40
2022-09-22T05:23:57.954Z,10.40
2022-09-22T05:26:25.919Z,10.40
2022-09-22T05:28:53.786Z,10.40
2022-09-22T05:31:21.684Z,10.40
2022-09-22T05:33:49.597Z,10.40
2022-09-22T05:36:17.448Z,10.40
2022-09-22T05:38:46.707Z,10.40
2022-09-22T05:41:20.678Z,10.40
2022-09-22T05:43:48.534Z,10.40
2022-09-22T05:46:16.410Z,10.40
2022-09-22T05:48:44.789Z,10.40
2022-09-22T05:51:12.720Z,10.40
2022-09-22T05:53:40.592Z,10.40
2022-09-22T05:56:09.769Z,10.30
2022-09-22T05:58:37.654Z,10.30
2022-09-22T06:01:05.678Z,10.30
2022-09-22T06:03:33.535Z,10.30
2022-09-22T06:06:01.400Z,10.30
2022-09-22T06:08:29.408Z,10.40
2022-09-22T06:10:57.293Z,10.30
2022-09-22T06:13:26.569Z,10.40
2022-09-22T06:15:54.405Z,10.40
2022-09-22T06:18:24.915Z,10.30
2022-09-22T06:20:56.305Z,10.40
2022-09-22T06:23:25.864Z,10.30
2022-09-22T06:25:58.226Z,10.30
2022-09-22T06:28:27.504Z,10.30
2022-09-22T06:31:00.490Z,10.40
2022-09-22T06:33:28.973Z,10.40
2022-09-22T06:35:58.066Z,10.40
2022-09-22T06:38:26.162Z,10.40
2022-09-22T06:41:00.637Z,10.50
2022-09-22T06:43:29.949Z,10.50
2022-09-22T06:46:02.635Z,10.60
2022-09-22T06:48:31.935Z,10.60
2022-09-22T06:51:00.028Z,10.70
2022-09-22T06:53:27.940Z,10.70
2022-09-22T06:55:55.911Z,10.70
2022-09-22T06:58:24.122Z,10.70
2022-09-22T07:00:53.834Z,10.80
2022-09-22T07:03:25.449Z,10.80
2022-09-22T07:05:54.751Z,10.90
2022-09-22T07:08:23.434Z,10.90
2022-09-22T07:10:56.217Z,11.00
2022-09-22T07:13:24.217Z,11.00
2022-09-22T07:15:55.285Z,11.00
2022-09-22T07:18:23.180Z,11.10
2022-09-22T07:20:51.026Z,11.10
2022-09-22T07:23:21.294Z,11.20
2022-09-22T07:25:56.415Z,11.20
2022-09-22T07:28:25.875Z,11.30
2022-09-22T07:30:56.333Z,11.30
2022-09-22T07:33:24.444Z,11.40
2022-09-22T07:36:02.768Z,11.50
2022-09-22T07:38:36.321Z,11.60
2022-09-22T07:41:06.689Z,11.70
2022-09-22T07:43:34.749Z,11.80
2022-09-22T07:46:04.054Z,11.90
2022-09-22T07:48:42.486Z,12.00
2022-09-22T07:51:16.541Z,12.20
2022-09-22T07:53:45.733Z,12.30
2022-09-22T07:56:15.507Z,12.40
2022-09-22T07:58:48.121Z,12.60
2022-09-22T08:01:18.135Z,12.70
2022-09-22T08:03:47.178Z,12.80
2022-09-22T08:06:18.447Z,12.90
2022-09-22T08:08:49.709Z,13.10
2022-09-22T08:11:19.490Z,13.20
2022-09-22T08:13:52.652Z,13.30
2022-09-22T08:16:22.977Z,13.40
2022-09-22T08:18:51.526Z,13.50
2022-09-22T08:21:19.627Z,13.60
2022-09-22T08:23:51.161Z,13.70
2022-09-22T08:26:19.757Z,13.80
2022-09-22T08:28:48.269Z,13.80
2022-09-22T08:31:19.914Z,13.90
2022-09-22T08:33:51.921Z,14.00
2022-09-22T08:36:19.908Z,14.10
2022-09-22T08:38:49.757Z,14.10
2022-09-22T08:41:26.030Z,14.20
2022-09-22T08:43:56.278Z,14.30
2022-09-22T08:46:28.108Z,14.40
2022-09-22T08:49:20.871Z,14.40
2022-09-22T08:51:54.855Z,14.50
2022-09-22T08:54:27.158Z,14.60
2022-09-22T08:57:20.615Z,14.70
2022-09-22T08:59:54.208Z,14.70
2022-09-22T09:02:45.205Z,14.80
2022-09-22T09:06:01.350Z,14.90
2022-09-22T09:08:50.774Z,15.00
2022-09-22T09:11:31.378Z,15.10
2022-09-22T09:14:13.668Z,15.10
2022-09-22T09:16:48.087Z,15.20
2022-09-22T09:19:20.007Z,15.30
2022-09-22T09:21:54.218Z,15.40
2022-09-22T09:27:22.167Z,15.50
2022-09-22T09:30:02.039Z,15.60
2022-09-22T09:32:37.363Z,15.70
2022-09-22T09:35:07.124Z,15.70
2022-09-22T09:37:35.612Z,15.80
2022-09-22T09:40:06.536Z,15.80
2022-09-22T09:42:36.216Z,15.90
2022-09-22T09:45:05.713Z,16.00
2022-09-22T09:47:59.130Z,16.10
2022-09-22T09:50:31.894Z,16.20
2022-09-22T09:53:00.211Z,16.20
2022-09-22T09:55:29.504Z,16.30
2022-09-22T09:58:05.723Z,16.30
2022-09-22T10:00:34.663Z,16.40
2022-09-22T10:03:14.578Z,16.40
2022-09-22T10:05:43.652Z,16.50
2022-09-22T10:08:23.688Z,16.60
2022-09-22T10:10:57.714Z,16.60
2022-09-22T10:13:32.475Z,16.70
2022-09-22T10:16:22.856Z,16.80
2022-09-22T10:18:52.720Z,16.90
2022-09-22T10:21:22.063Z,16.90
2022-09-22T10:23:50.876Z,17.00
2022-09-22T10:26:23.198Z,17.10
2022-09-22T10:29:18.114Z,17.10
2022-09-22T10:32:03.062Z,17.20
2022-09-22T10:34:33.525Z,17.30
2022-09-22T10:37:03.743Z,17.30
2022-09-22T10:39:39.909Z,17.40
2022-09-22T10:42:20.461Z,17.50
2022-09-22T10:44:49.132Z,17.50
2022-09-22T10:47:28.005Z,17.60
2022-09-22T10:50:27.862Z,17.70
2022-09-22T10:52:59.882Z,17.80
2022-09-22T10:55:31.550Z,17.90
2022-09-22T10:58:20.317Z,17.90
2022-09-22T11:00:48.548Z,18.00
2022-09-22T11:03:34.173Z,18.20
2022-09-22T11:06:41.742Z,18.30
2022-09-22T11:09:36.699Z,18.40
2022-09-22T11:12:19.140Z,18.50
2022-09-22T11:15:14.119Z,18.70
2022-09-22T11:18:19.999Z,18.90
2022-09-22T11:20:52.032Z,19.10
2022-09-22T11:23:52.877Z,19.30
2022-09-22T11:26:37.097Z,19.40
2022-09-22T11:29:37.422Z,19.80
2022-09-22T11:32:21.004Z,20.00
2022-09-22T11:35:03.265Z,20.30
2022-09-22T11:37:44.009Z,20.50
2022-09-22T11:40:28.050Z,20.80
2022-09-22T11:43:05.226Z,21.30
2022-09-22T11:45:49.775Z,21.80
2022-09-22T11:48:39.974Z,22.20
2022-09-22T11:51:32.108Z,22.80
2022-09-22T11:54:18.164Z,23.40
2022-09-22T11:56:50.165Z,24.20
2022-09-22T11:59:34.641Z,24.90
2022-09-22T12:02:09.990Z,25.70
2022-09-22T12:04:43.641Z,26.30
2022-09-22T12:07:17.983Z,26.80
2022-09-22T12:09:49.129Z,27.40
2022-09-22T12:12:21.031Z,27.80
2022-09-22T12:14:57.755Z,28.30
2022-09-22T12:17:30.462Z,28.70
2022-09-22T12:20:12.970Z,29.10
2022-09-22T12:23:05.983Z,29.50
2022-09-22T12:25:52.114Z,29.90
2022-09-22T12:28:24.164Z,30.20
2022-09-22T12:31:08.002Z,30.60
2022-09-22T12:33:38.563Z,30.90
2022-09-22T12:36:08.585Z,31.20
2022-09-22T12:38:36.508Z,31.40
2022-09-22T12:41:05.026Z,31.60
2022-09-22T12:43:35.364Z,31.60
2022-09-22T12:46:12.420Z,31.40
2022-09-22T12:48:40.328Z,31.20
2022-09-22T12:51:31.497Z,30.90
2022-09-22T12:54:28.659Z,31.10
2022-09-22T12:56:59.781Z,31.40
2022-09-22T13:00:07.112Z,31.50
2022-09-22T13:02:44.476Z,31.40
2022-09-22T13:05:35.253Z,31.40
2022-09-22T13:08:05.034Z,31.40
2022-09-22T13:10:50.695Z,31.40
2022-09-22T13:13:24.862Z,31.30
2022-09-22T13:15:59.317Z,31.10
2022-09-22T13:18:35.501Z,30.80
2022-09-22T13:21:04.911Z,30.40
2022-09-22T13:23:34.417Z,30.00
2022-09-22T13:26:09.464Z,29.70
2022-09-22T13:28:37.331Z,29.40
2022-09-22T13:31:13.011Z,29.30
2022-09-22T13:33:41.121Z,29.20
2022-09-22T13:36:12.840Z,29.20
2022-09-22T13:38:44.267Z,29.00
2022-09-22T13:41:13.593Z,28.90
2022-09-22T13:43:45.317Z,28.90
2022-09-22T13:46:25.208Z,28.90
2022-09-22T13:48:56.404Z,28.90
2022-09-22T13:51:26.182Z,28.90
2022-09-22T13:53:58.492Z,28.70
2022-09-22T13:56:27.028Z,28.40
2022-09-22T13:58:59.770Z,28.10
2022-09-22T14:01:29.421Z,27.70
2022-09-22T14:03:57.957Z,27.30
2022-09-22T14:06:28.281Z,26.80
2022-09-22T14:08:58.074Z,26.30
2022-09-22T14:11:28.631Z,25.80
2022-09-22T14:14:01.328Z,25.30
2022-09-22T14:16:33.752Z,24.90
2022-09-22T14:19:07.091Z,24.50
2022-09-22T14:21:43.833Z,24.20
2022-09-22T14:24:15.180Z,23.80
2022-09-22T14:26:47.518Z,23.50
2022-09-22T14:29:19.445Z,23.30
2022-09-22T14:31:52.604Z,23.10
2022-09-22T14:34:26.388Z,22.90
2022-09-22T14:36:56.204Z,22.80
2022-09-22T14:39:31.780Z,22.60
2022-09-22T14:42:08.850Z,22.50
2022-09-22T14:44:42.684Z,22.40
2022-09-22T14:47:21.027Z,22.30
2022-09-22T14:49:49.405Z,22.10
2022-09-22T14:52:26.877Z,22.00
2022-09-22T14:55:01.983Z,21.90
2022-09-22T14:57:30.343Z,21.90
2022-09-22T15:00:18.318Z,21.80
2022-09-22T15:02:50.813Z,21.70
2022-09-22T15:05:29.718Z,21.60
2022-09-22T15:07:59.128Z,21.60
2022-09-22T15:10:30.207Z,21.50
2022-09-22T15:13:18.338Z,21.40
2022-09-22T15:15:48.292Z,21.30
2022-09-22T15:18:19.163Z,21.30
2022-09-22T15:20:49.887Z,21.20
2022-09-22T15:23:21.720Z,21.20
2022-09-22T15:25:52.082Z,21.10
2022-09-22T15:28:23.871Z,21.00
2022-09-22T15:30:52.776Z,21.00
2022-09-22T15:33:21.797Z,20.90
2022-09-22T15:35:53.876Z,20.80
2022-09-22T15:38:23.974Z,20.80
2022-09-22T15:40:53.352Z,20.70
2022-09-22T15:43:23.426Z,20.70
2022-09-22T15:45:56.148Z,20.70
2022-09-22T15:48:28.337Z,20.60
2022-09-22T15:50:57.628Z,20.60
2022-09-22T15:53:25.691Z,20.60
2022-09-22T15:55:55.491Z,20.50
2022-09-22T15:58:24.259Z,20.50
2022-09-22T16:00:53.382Z,20.50
2022-09-22T16:03:24.185Z,20.40
2022-09-22T16:05:56.712Z,20.40
2022-09-22T16:08:28.717Z,20.30
2022-09-22T16:11:00.149Z,20.30
2022-09-22T16:13:27.985Z,20.20
2022-09-22T16:15:56.053Z,20.20
2022-09-22T16:18:24.001Z,20.20
2022-09-22T16:20:52.184Z,20.10
2022-09-22T16:23:20.387Z,20.10
2022-09-22T16:25:53.713Z,20.00
2022-09-22T16:28:22.931Z,20.00
2022-09-22T16:30:50.873Z,19.90
2022-09-22T16:33:18.727Z,19.90
2022-09-22T16:35:46.582Z,19.90
2022-09-22T16:38:14.417Z,19.80
2022-09-22T16:40:42.568Z,19.80
2022-09-22T16:43:10.980Z,19.80
2022-09-22T16:45:57.755Z,19.80
2022-09-22T16:48:25.895Z,19.70
2022-09-22T16:50:56.178Z,19.70
2022-09-22T16:53:24.146Z,19.70
2022-09-22T16:55:52.022Z,19.60
2022-09-22T16:58:19.899Z,19.60
2022-09-22T17:00:49.316Z,19.60
2022-09-22T17:03:18.775Z,19.60
2022-09-22T17:05:46.735Z,19.50
2022-09-22T17:08:15.298Z,19.50
2022-09-22T17:10:43.176Z,19.40
2022-09-22T17:13:11.006Z,19.40
2022-09-22T17:15:38.843Z,19.30
2022-09-22T17:18:08.081Z,19.30
2022-09-22T17:20:37.570Z,19.30
2022-09-22T17:23:06.712Z,19.20
2022-09-22T17:25:34.613Z,19.10
2022-09-22T17:28:02.975Z,19.00
2022-09-22T17:30:30.855Z,19.00
2022-09-22T17:33:01.328Z,19.00
2022-09-22T17:35:30.576Z,19.00
2022-09-22T17:37:58.474Z,18.90
2022-09-22T17:40:26.401Z,18.90
2022-09-22T17:42:54.295Z,18.80
2022-09-22T17:45:22.463Z,18.80
2022-09-22T17:48:16.405Z,18.70
2022-09-22T17:51:08.060Z,18.70
2022-09-22T17:54:08.108Z,18.70
2022-09-22T17:56:35.969Z,18.60
2022-09-22T17:59:03.831Z,18.60
2022-09-22T18:01:31.701Z,18.60
2022-09-22T18:03:59.540Z,18.50
2022-09-22T18:06:28.732Z,18.50
2022-09-22T18:09:02.115Z,18.50
2022-09-22T18:11:29.953Z,18.40
2022-09-22T18:13:57.771Z,18.40
2022-09-22T18:16:30.112Z,18.30
2022-09-22T18:18:57.936Z,18.30
2022-09-22T18:21:26.852Z,18.30
2022-09-22T18:23:56.076Z,18.30
2022-09-22T18:26:23.980Z,18.30
2022-09-22T18:28:53.163Z,18.20
2022-09-22T18:31:21.032Z,18.20
2022-09-22T18:33:48.952Z,18.20
2022-09-22T18:36:16.765Z,18.20
2022-09-22T18:38:44.647Z,18.10
2022-09-22T18:41:16.881Z,18.10
2022-09-22T18:43:49.912Z,18.10
2022-09-22T18:46:19.799Z,18.10
2022-09-22T18:48:48.643Z,18.00
2022-09-22T18:51:16.871Z,18.00
2022-09-22T18:53:44.697Z,17.90
2022-09-22T18:56:18.523Z,17.90
2022-09-22T18:58:46.350Z,17.90
2022-09-22T19:01:14.969Z,17.80
2022-09-22T19:03:43.018Z,17.80
2022-09-22T19:06:10.861Z,17.80
2022-09-22T19:08:38.715Z,17.80
2022-09-22T19:11:06.667Z,17.70
2022-09-22T19:13:37.048Z,17.70
2022-09-22T19:16:05.164Z,17.60
2022-09-22T19:18:33.055Z,17.60
2022-09-22T19:21:03.748Z,17.60
2022-09-22T19:23:32.453Z,17.50
2022-09-22T19:26:00.511Z,17.60
2022-09-22T19:28:28.459Z,17.50
2022-09-22T19:30:57.804Z,17.50
2022-09-22T19:33:25.717Z,17.40
2022-09-22T19:35:53.598Z,17.40
2022-09-22T19:38:21.485Z,17.40
2022-09-22T19:40:49.502Z,17.30
2022-09-22T19:43:17.835Z,17.30
2022-09-22T19:45:45.714Z,17.20
2022-09-22T19:48:15.343Z,17.10
2022-09-22T19:50:43.228Z,17.10
2022-09-22T19:53:11.137Z,17.00
2022-09-22T19:55:39.740Z,17.00
2022-09-22T19:58:07.659Z,17.00
2022-09-22T20:00:36.183Z,16.90
2022-09-22T20:03:05.085Z,16.80
2022-09-22T20:05:37.017Z,16.80
2022-09-22T20:08:05.460Z,16.80
2022-09-22T20:10:34.206Z,16.70
2022-09-22T20:13:22.107Z,16.70
2022-09-22T20:15:50.009Z,16.70
2022-09-22T20:18:21.400Z,16.70
2022-09-22T20:20:52.037Z,16.70
2022-09-22T20:23:21.787Z,16.60
2022-09-22T20:25:50.823Z,16.60
2022-09-22T20:28:18.719Z,16.50
2022-09-22T20:30:46.601Z,16.50
2022-09-22T20:33:20.338Z,16.40
2022-09-22T20:35:50.717Z,16.40
2022-09-22T20:38:18.866Z,16.40
2022-09-22T20:40:46.872Z,16.40
2022-09-22T20:43:15.911Z,16.40
2022-09-22T20:45:44.499Z,16.30
2022-09-22T20:48:16.621Z,16.30
2022-09-22T20:50:44.517Z,16.30
2022-09-22T20:53:14.421Z,16.30
2022-09-22T20:55:42.255Z,16.30
2022-09-22T20:58:12.643Z,16.30
2022-09-22T21:00:40.476Z,16.30
2022-09-22T21:03:08.411Z,16.20
2022-09-22T21:05:36.310Z,16.20
2022-09-22T21:08:18.071Z,16.20
2022-09-22T21:10:47.277Z,16.20
2022-09-22T21:13:15.153Z,16.10
2022-09-22T21:15:43.211Z,16.10
2022-09-22T21:18:11.089Z,16.10
2022-09-22T21:20:41.130Z,16.10
2022-09-22T21:23:09.477Z,16.10
2022-09-22T21:25:37.345Z,16.00
2022-09-22T21:28:06.571Z,16.00
2022-09-22T21:30:34.504Z,15.90
2022-09-22T21:33:02.634Z,16.00
2022-09-22T21:35:30.505Z,15.90
2022-09-22T21:37:58.321Z,15.90
2022-09-22T21:40:26.219Z,15.80
2022-09-22T21:42:54.118Z,15.80
2022-09-22T21:45:23.312Z,15.80
2022-09-22T21:47:51.244Z,15.80
2022-09-22T21:50:19.324Z,15.70
2022-09-22T21:52:47.178Z,15.70
2022-09-22T21:55:15.121Z,15.60
2022-09-22T21:57:43.002Z,15.60
2022-09-22T22:00:11.706Z,15.50
2022-09-22T22:02:54.841Z,15.50
2022-09-22T22:05:22.710Z,15.40
2022-09-22T22:07:50.743Z,15.40
2022-09-22T22:10:19.078Z,15.40
2022-09-22T22:12:46.940Z,15.30
2022-09-22T22:15:14.926Z,15.30
2022-09-22T22:17:44.097Z,15.20
2022-09-22T22:20:11.963Z,15.20
2022-09-22T22:22:39.766Z,15.10
2022-09-22T22:25:08.179Z,15.10
2022-09-22T22:27:36.141Z,15.10
2022-09-22T22:30:04.116Z,15.00
2022-09-22T22:32:31.981Z,15.00
2022-09-22T22:35:02.921Z,15.00
2022-09-22T22:37:30.808Z,15.00
2022-09-22T22:39:58.634Z,15.00
2022-09-22T22:42:26.501Z,14.90
2022-09-22T22:44:54.344Z,14.90
2022-09-22T22:47:22.213Z,14.90
2022-09-22T22:49:50.074Z,14.90
2022-09-22T22:52:19.464Z,14.90
2022-09-22T22:54:47.285Z,14.80
2022-09-22T22:57:15.135Z,14.80
2022-09-22T22:59:42.964Z,14.80
2022-09-22T23:02:12.339Z,14.80
2022-09-22T23:04:40.325Z,14.80
2022-09-22T23:07:08.161Z,14.70
2022-09-22T23:09:37.329Z,14.70
2022-09-22T23:12:05.739Z,14.70
2022-09-22T23:14:33.542Z,14.60
2022-09-22T23:17:02.401Z,14.60
2022-09-22T23:19:30.211Z,14.60
2022-09-22T23:21:59.046Z,14.60
2022-09-22T23:24:26.892Z,14.60
2022-09-22T23:26:56.257Z,14.50
2022-09-22T23:29:24.105Z,14.50
2022-09-22T23:31:51.940Z,14.40
2022-09-22T23:34:20.740Z,14.40
2022-09-22T23:36:48.742Z,14.30
2022-09-22T23:39:16.700Z,14.30
2022-09-22T23:41:44.636Z,14.30
2022-09-22T23:44:14.072Z,14.30
2022-09-22T23:46:41.936Z,14.30
2022-09-22T23:49:09.786Z,14.30
2022-09-22T23:51:37.931Z,14.20
2022-09-22T23:54:05.955Z,14.20
2022-09-22T23:56:33.931Z,14.20
2022-09-22T23:59:01.769Z,14.20
